Time;durP1;ratioP1;P1;durP2;ratioP2;P2;SDS_P1;SDS_P2;PMS_P1;PMS_P2;Temp;Humidity;BMP_temperature;BMP_pressure;BME280_temperature;BME280_humidity;BME280_pressure;Samples;Min_cycle;Max_cycle;Signal;HPM_P1;HPM_P2
2022/07/09 00:00:37;;;;;;;4.93;2.40;;;;;;;20.67;49.74;99015.63;8418666;28;20235;-79
2022/07/09 00:04:40;;;;;;;8.23;2.00;;;;;;;20.64;49.76;99021.09;8419302;28;20234;-79
2022/07/09 00:08:44;;;;;;;5.00;1.80;;;;;;;20.64;49.65;99015.84;8418943;28;20239;-79
2022/07/09 00:12:47;;;;;;;5.43;2.10;;;;;;;20.56;50.39;99012.00;8419169;28;20550;-80
2022/07/09 00:16:50;;;;;;;7.10;2.60;;;;;;;20.59;50.24;99015.28;8418860;28;20221;-79
2022/07/09 00:20:55;;;;;;;5.27;1.90;;;;;;;20.54;50.24;99006.03;8418581;28;20229;-80
2022/07/09 00:24:59;;;;;;;6.80;2.13;;;;;;;20.54;50.28;99001.59;8418650;28;20236;-80
2022/07/09 00:29:02;;;;;;;4.13;1.80;;;;;;;20.47;50.71;98995.94;8418578;28;20251;-79
2022/07/09 00:33:05;;;;;;;4.47;1.70;;;;;;;20.45;50.81;99004.88;8418484;28;20417;-80
2022/07/09 00:37:08;;;;;;;9.97;2.30;;;;;;;20.43;50.76;98999.72;8418053;28;20230;-79
2022/07/09 00:41:12;;;;;;;5.17;2.03;;;;;;;20.39;50.95;98992.13;8417937;28;20232;-79
2022/07/09 00:45:17;;;;;;;5.30;1.87;;;;;;;20.32;51.58;98989.09;8418018;28;20239;-79
2022/07/09 00:49:20;;;;;;;4.77;1.50;;;;;;;20.26;52.10;98997.41;8417946;28;20235;-79
2022/07/09 00:53:24;;;;;;;5.27;1.80;;;;;;;20.24;52.32;98991.41;8417361;28;20223;-79
2022/07/09 00:57:30;;;;;;;7.10;1.83;;;;;;;20.23;52.00;98987.06;8416021;28;20287;-79
2022/07/09 01:01:33;;;;;;;5.53;2.00;;;;;;;20.23;52.22;98990.53;8417179;28;20301;-79
2022/07/09 01:05:36;;;;;;;3.23;1.67;;;;;;;20.21;52.52;98981.91;8417171;28;20530;-79
2022/07/09 01:09:39;;;;;;;7.13;2.03;;;;;;;20.16;52.96;98983.16;8417100;28;20242;-79
2022/07/09 01:13:43;;;;;;;6.80;2.00;;;;;;;20.13;52.90;98986.03;8417247;28;20400;-79
2022/07/09 01:17:46;;;;;;;4.27;1.60;;;;;;;20.04;52.94;98980.41;8417135;28;20230;-79
2022/07/09 01:21:50;;;;;;;6.17;1.80;;;;;;;20.09;52.74;98972.25;8416726;28;20398;-81
2022/07/09 01:25:54;;;;;;;5.50;2.10;;;;;;;19.97;53.10;98980.94;8416684;28;20233;-79
2022/07/09 01:29:57;;;;;;;5.07;2.30;;;;;;;20.00;52.92;98973.69;8416482;28;20230;-79
2022/07/09 01:34:00;;;;;;;5.30;2.20;;;;;;;19.98;53.37;98969.50;8416297;28;20229;-79
2022/07/09 01:38:04;;;;;;;5.13;1.87;;;;;;;19.94;52.90;98973.28;8416277;28;20228;-79
2022/07/09 01:42:06;;;;;;;4.97;1.90;;;;;;;19.97;52.68;98960.78;8416042;28;20235;-79
2022/07/09 01:46:09;;;;;;;3.57;1.63;;;;;;;19.95;52.73;98965.25;8415966;28;20233;-79
2022/07/09 01:50:12;;;;;;;5.70;1.90;;;;;;;20.01;52.98;98959.63;8415561;28;20230;-79
2022/07/09 01:54:17;;;;;;;5.60;2.00;;;;;;;19.97;53.08;98949.38;8415730;28;20230;-79
2022/07/09 01:58:19;;;;;;;4.27;1.63;;;;;;;19.98;52.69;98949.28;8415663;28;20265;-79
2022/07/09 02:02:22;;;;;;;5.27;2.40;;;;;;;20.02;52.55;98942.03;8414980;28;20231;-78
2022/07/09 02:06:25;;;;;;;6.10;2.90;;;;;;;19.95;52.66;98946.84;8415218;28;20223;-79
2022/07/09 02:10:30;;;;;;;7.83;3.33;;;;;;;19.99;53.16;98944.88;8415055;28;20250;-80
2022/07/09 02:14:33;;;;;;;8.03;3.53;;;;;;;20.03;52.67;98939.31;8414955;28;20231;-79
2022/07/09 02:18:36;;;;;;;6.63;2.90;;;;;;;20.01;52.99;98941.22;8414913;28;20241;-79
2022/07/09 02:22:39;;;;;;;8.43;3.30;;;;;;;20.00;52.83;98939.50;8414840;28;20304;-79
2022/07/09 02:26:43;;;;;;;6.80;2.63;;;;;;;20.05;53.11;98937.44;8414877;28;20239;-80
2022/07/09 02:30:46;;;;;;;7.43;3.20;;;;;;;19.98;53.38;98938.78;8414437;28;20231;-79
2022/07/09 02:34:50;;;;;;;6.23;2.80;;;;;;;19.97;53.26;98936.25;8414392;28;20222;-80
2022/07/09 02:38:53;;;;;;;6.70;2.70;;;;;;;19.95;53.59;98938.13;8414242;28;20233;-79
2022/07/09 02:42:57;;;;;;;8.23;2.80;;;;;;;19.92;53.75;98941.81;8414164;28;20231;-79
2022/07/09 02:46:59;;;;;;;3.47;2.17;;;;;;;19.91;53.81;98938.38;8414159;28;20227;-78
2022/07/09 02:51:03;;;;;;;4.77;2.10;;;;;;;19.90;53.48;98944.56;8414111;28;20233;-80
2022/07/09 02:55:06;;;;;;;4.73;2.10;;;;;;;19.91;53.43;98938.38;8413908;28;20230;-79
2022/07/09 02:59:11;;;;;;;5.37;2.20;;;;;;;19.83;53.55;98940.66;8413831;28;20229;-79
2022/07/09 03:03:13;;;;;;;8.57;1.90;;;;;;;19.87;53.54;98941.28;8413911;28;20230;-80
2022/07/09 03:07:17;;;;;;;5.97;2.17;;;;;;;19.87;53.49;98938.66;8413629;28;20229;-79
2022/07/09 03:11:19;;;;;;;4.70;2.17;;;;;;;19.83;53.88;98931.94;8413470;28;20241;-80
2022/07/09 03:15:24;;;;;;;4.57;1.83;;;;;;;19.84;53.50;98926.56;8412974;28;20532;-78
2022/07/09 03:19:26;;;;;;;4.73;1.70;;;;;;;19.89;53.29;98939.41;8412747;28;20242;-79
2022/07/09 03:23:30;;;;;;;5.37;2.17;;;;;;;19.75;53.56;98944.75;8413364;28;20427;-79
2022/07/09 03:27:32;;;;;;;4.63;2.03;;;;;;;19.79;53.60;98933.09;8413401;28;20247;-79
2022/07/09 03:31:37;;;;;;;7.80;1.80;;;;;;;19.79;53.24;98927.81;8413538;28;20242;-79
2022/07/09 03:35:39;;;;;;;5.30;2.07;;;;;;;19.82;53.24;98923.22;8413269;28;20233;-80
2022/07/09 03:39:42;;;;;;;5.27;1.90;;;;;;;19.77;53.57;98919.22;8413085;28;20528;-79
2022/07/09 03:43:45;;;;;;;4.40;2.17;;;;;;;19.76;53.58;98920.13;8413271;28;20419;-80
2022/07/09 03:47:50;;;;;;;4.17;1.73;;;;;;;19.75;53.60;98927.19;8413073;28;20228;-79
2022/07/09 03:51:53;;;;;;;6.70;2.07;;;;;;;19.73;53.74;98931.72;8412893;28;20238;-79
2022/07/09 03:56:15;;;;;;;5.13;1.70;;;;;;;19.73;54.33;98931.72;8412990;28;20298;-79
2022/07/09 04:00:18;;;;;;;3.77;1.87;;;;;;;19.73;54.32;98934.34;8412741;28;20236;-79
2022/07/09 04:04:22;;;;;;;3.67;1.73;;;;;;;19.85;54.00;98932.66;8412791;28;20228;-79
2022/07/09 04:08:25;;;;;;;6.13;1.90;;;;;;;19.75;54.26;98926.34;8412215;28;20229;-79
2022/07/09 04:12:28;;;;;;;5.83;1.70;;;;;;;19.77;54.38;98927.94;8412654;28;20240;-79
2022/07/09 04:16:30;;;;;;;5.13;1.93;;;;;;;19.81;53.68;98934.66;8412582;28;20237;-79
2022/07/09 04:20:35;;;;;;;4.60;1.70;;;;;;;19.77;54.23;98941.06;8412365;28;20288;-79
2022/07/09 04:24:37;;;;;;;3.77;1.87;;;;;;;19.74;54.44;98936.00;8412606;28;20236;-79
2022/07/09 04:28:40;;;;;;;5.63;1.60;;;;;;;19.72;54.49;98935.25;8413379;28;20239;-79
2022/07/09 04:32:43;;;;;;;3.63;1.80;;;;;;;19.75;54.38;98934.25;8418583;28;20238;-79
2022/07/09 04:36:47;;;;;;;4.17;1.90;;;;;;;19.81;54.37;98936.44;8418420;28;20543;-79
2022/07/09 04:40:50;;;;;;;4.00;1.70;;;;;;;19.87;53.96;98941.28;8417887;28;20236;-79
2022/07/09 04:44:53;;;;;;;9.03;2.30;;;;;;;19.82;53.53;98932.84;8418079;28;20431;-79
2022/07/09 04:48:55;;;;;;;4.93;1.90;;;;;;;19.81;53.32;98944.34;8417888;28;20531;-79
2022/07/09 04:53:00;;;;;;;3.60;1.60;;;;;;;19.88;53.64;98927.22;8416888;28;20255;-79
2022/07/09 04:57:04;;;;;;;4.80;1.90;;;;;;;19.90;53.38;98920.91;8417062;28;20231;-80
2022/07/09 05:01:08;;;;;;;5.90;2.00;;;;;;;19.93;52.91;98925.09;8417134;28;20237;-79
2022/07/09 05:05:13;;;;;;;6.93;1.80;;;;;;;19.95;52.97;98931.09;8417404;28;20360;-79
2022/07/09 05:09:17;;;;;;;6.37;1.83;;;;;;;20.02;53.20;98927.09;8416896;28;20231;-79
2022/07/09 05:13:20;;;;;;;5.43;1.90;;;;;;;20.10;52.72;98923.94;8417245;28;20238;-79
2022/07/09 05:17:23;;;;;;;3.27;1.67;;;;;;;20.16;53.11;98920.91;8416675;28;20515;-79
2022/07/09 05:21:26;;;;;;;6.03;2.10;;;;;;;20.19;53.01;98927.75;8416150;28;20557;-79
2022/07/09 05:25:31;;;;;;;5.70;2.00;;;;;;;20.25;53.23;98936.03;8416442;28;20296;-79
2022/07/09 05:29:34;;;;;;;3.80;1.90;;;;;;;20.31;52.78;98932.16;8416276;28;20228;-79
2022/07/09 05:33:37;;;;;;;6.23;2.00;;;;;;;20.41;52.63;98940.25;8415767;28;20238;-79
2022/07/09 05:37:43;;;;;;;16.70;2.67;;;;;;;20.42;52.43;98926.16;8415483;28;20231;-79
2022/07/09 05:41:47;;;;;;;3.83;1.73;;;;;;;20.50;52.57;98936.97;8401175;28;20235;-79
2022/07/09 05:45:50;;;;;;;7.07;2.00;;;;;;;20.49;52.08;98928.25;8381783;28;20239;-80
2022/07/09 05:49:53;;;;;;;5.17;2.07;;;;;;;20.64;52.28;98928.16;8380542;28;20227;-79
2022/07/09 05:53:56;;;;;;;5.20;2.10;;;;;;;20.73;51.80;98922.22;8382309;28;20418;-79
2022/07/09 05:58:00;;;;;;;6.20;1.90;;;;;;;20.80;52.16;98923.47;8382003;28;20223;-81
2022/07/09 06:02:06;;;;;;;5.50;2.10;;;;;;;20.84;52.11;98930.19;8382592;28;20262;-81
2022/07/09 06:06:09;;;;;;;5.83;2.30;;;;;;;20.83;52.09;98928.53;8381640;28;20231;-82
2022/07/09 06:10:13;;;;;;;5.43;2.00;;;;;;;21.01;52.01;98939.53;8382084;28;20230;-80
2022/07/09 06:14:19;;;;;;;5.37;2.10;;;;;;;21.08;52.02;98934.69;8382215;28;20414;-79
2022/07/09 06:18:29;;;;;;;6.80;2.10;;;;;;;21.17;51.82;98934.00;8381779;28;20242;-81
2022/07/09 06:22:32;;;;;;;4.57;1.90;;;;;;;21.34;51.34;98926.66;8382217;28;20334;-79
2022/07/09 06:26:35;;;;;;;3.53;1.63;;;;;;;21.56;51.08;98916.25;8381883;28;20233;-79
2022/07/09 06:30:39;;;;;;;4.70;1.80;;;;;;;21.60;50.81;98914.22;8381733;28;20232;-79
2022/07/09 06:34:41;;;;;;;5.07;1.80;;;;;;;21.68;50.60;98919.75;8381765;28;20411;-80
2022/07/09 06:43:04;;;;;;;5.07;1.93;;;;;;;21.64;50.50;98913.03;8413707;28;20237;-79
2022/07/09 06:47:09;;;;;;;15.13;2.50;;;;;;;22.00;50.13;98912.03;8414405;28;20225;-81
2022/07/09 06:51:12;;;;;;;9.67;2.50;;;;;;;22.33;49.29;98909.59;8414185;28;20234;-81
2022/07/09 06:55:14;;;;;;;12.90;3.10;;;;;;;22.56;48.55;98915.69;8413212;28;20241;-82
2022/07/09 06:59:18;;;;;;;3.50;1.33;;;;;;;22.40;48.28;98918.69;8413848;28;20227;-82
2022/07/09 07:03:22;;;;;;;3.40;1.27;;;;;;;22.41;48.01;98913.31;8413823;28;20234;-80
2022/07/09 07:07:25;;;;;;;2.67;1.20;;;;;;;22.53;48.34;98915.94;8413057;28;20241;-81
2022/07/09 07:11:28;;;;;;;3.70;1.30;;;;;;;22.78;47.69;98915.66;8413531;28;20233;-81
2022/07/09 07:15:31;;;;;;;3.07;1.50;;;;;;;23.11;46.57;98908.66;8413710;28;20230;-81
2022/07/09 07:19:35;;;;;;;7.37;1.20;;;;;;;23.38;46.60;98905.59;8413645;28;20227;-80
2022/07/09 07:23:38;;;;;;;3.87;1.40;;;;;;;23.51;45.94;98900.09;8413544;28;20234;-80
2022/07/09 07:27:41;;;;;;;5.40;1.50;;;;;;;23.78;45.20;98909.38;8413359;28;20576;-80
2022/07/09 07:31:44;;;;;;;5.77;2.10;;;;;;;23.66;45.58;98905.91;8413555;28;20356;-81
2022/07/09 07:35:48;;;;;;;4.00;1.60;;;;;;;23.94;44.45;98901.00;8413169;28;20230;-81
2022/07/09 07:39:51;;;;;;;6.60;3.03;;;;;;;23.99;45.39;98896.16;8413342;28;20233;-81
2022/07/09 07:43:53;;;;;;;5.53;2.23;;;;;;;24.06;45.32;98889.34;8412935;28;20236;-81
2022/07/09 07:47:56;;;;;;;7.97;2.70;;;;;;;23.95;45.01;98887.66;8413706;28;20231;-80
2022/07/09 07:52:01;;;;;;;6.33;2.40;;;;;;;23.84;45.31;98887.72;8413121;28;20235;-81
2022/07/09 07:56:04;;;;;;;5.60;2.20;;;;;;;23.91;44.66;98880.94;8413180;28;20409;-81
2022/07/09 08:00:08;;;;;;;7.93;2.47;;;;;;;23.80;45.00;98876.56;8412848;28;20231;-81
2022/07/09 08:04:11;;;;;;;6.17;2.20;;;;;;;24.03;44.97;98875.53;8414516;28;20414;-81
2022/07/09 08:08:15;;;;;;;6.40;2.40;;;;;;;24.02;43.58;98880.00;8419150;28;20243;-81
2022/07/09 08:12:18;;;;;;;5.43;2.00;;;;;;;24.16;43.76;98873.53;8419013;28;20226;-81
2022/07/09 08:16:20;;;;;;;7.20;2.07;;;;;;;24.24;44.47;98876.38;8418920;28;20223;-81
2022/07/09 08:20:23;;;;;;;4.67;1.90;;;;;;;24.45;43.66;98873.66;8418578;28;20230;-80
2022/07/09 08:24:28;;;;;;;7.37;1.90;;;;;;;24.27;43.58;98873.44;8418443;28;20241;-81
2022/07/09 08:28:30;;;;;;;10.63;2.20;;;;;;;25.34;41.43;98871.06;8418589;28;20710;-81
2022/07/09 08:32:33;;;;;;;5.10;1.70;;;;;;;26.08;39.80;98856.31;8418611;28;20234;-81
2022/07/09 08:36:36;;;;;;;6.93;1.63;;;;;;;25.38;41.14;98855.72;8418419;28;20231;-81
2022/07/09 08:40:41;;;;;;;5.77;1.73;;;;;;;24.74;42.00;98857.88;8418280;28;20546;-81
2022/07/09 08:44:46;;;;;;;5.03;1.80;;;;;;;24.32;42.58;98858.00;8418094;28;20237;-81
2022/07/09 08:48:50;;;;;;;3.37;1.60;;;;;;;24.15;42.97;98853.34;8418036;28;20227;-81
2022/07/09 08:52:55;;;;;;;4.37;1.47;;;;;;;23.92;43.24;98848.22;8418195;28;20233;-81
2022/07/09 08:56:59;;;;;;;3.13;1.30;;;;;;;23.92;42.42;98842.94;8418033;28;20231;-85
2022/07/09 09:01:04;;;;;;;4.03;1.60;;;;;;;24.11;42.67;98839.53;8417745;28;20435;-80
2022/07/09 09:05:09;;;;;;;2.80;1.50;;;;;;;24.39;42.40;98835.31;8417512;28;20548;-81
2022/07/09 09:09:21;;;;;;;4.63;1.50;;;;;;;24.13;42.60;98829.66;8417456;28;20535;-80
2022/07/09 09:13:25;;;;;;;4.47;1.60;;;;;;;24.60;41.97;98834.44;8416964;28;20520;-80
2022/07/09 09:17:27;;;;;;;4.60;1.70;;;;;;;25.45;40.23;98826.81;8416246;28;20412;-80
2022/07/09 09:21:30;;;;;;;4.07;1.73;;;;;;;26.50;38.14;98828.41;8416736;28;20231;-80
2022/07/09 09:25:33;;;;;;;3.60;1.40;;;;;;;25.01;40.03;98819.28;8416986;28;20238;-80
2022/07/09 09:29:39;;;;;;;6.80;1.67;;;;;;;25.02;40.89;98822.75;8416415;28;20228;-81
2022/07/09 09:33:42;;;;;;;4.00;1.33;;;;;;;25.48;39.91;98814.13;8416788;28;20243;-81
2022/07/09 09:37:44;;;;;;;5.73;1.50;;;;;;;25.46;38.85;98813.44;8416466;28;20231;-82
2022/07/09 09:41:48;;;;;;;3.90;1.40;;;;;;;25.61;39.20;98811.16;8414905;28;20228;-82
2022/07/09 09:45:54;;;;;;;3.90;1.40;;;;;;;25.31;39.51;98814.84;8383305;28;20304;-82
2022/07/09 09:49:58;;;;;;;5.10;1.80;;;;;;;24.77;40.40;98820.53;8383075;28;20237;-83
2022/07/09 09:54:03;;;;;;;3.20;1.40;;;;;;;24.90;40.27;98811.47;8382932;28;20244;-80
2022/07/09 09:58:07;;;;;;;4.93;1.50;;;;;;;24.64;40.66;98817.31;8382533;28;20231;-78
2022/07/09 10:02:11;;;;;;;8.97;1.80;;;;;;;24.32;41.56;98812.19;8382367;28;20514;-77
2022/07/09 10:06:14;;;;;;;3.10;1.47;;;;;;;24.17;41.21;98809.88;8382573;28;20528;-77
2022/07/09 10:10:19;;;;;;;5.40;1.60;;;;;;;23.86;41.92;98813.53;8382355;28;20549;-79
2022/07/09 10:14:31;;;;;;;4.13;1.90;;;;;;;23.83;42.00;98809.31;8381633;28;20222;-77
2022/07/09 10:18:35;;;;;;;7.30;2.07;;;;;;;23.66;42.45;98807.25;8381727;28;20242;-74
2022/07/09 10:22:40;;;;;;;8.63;2.17;;;;;;;23.50;43.14;98803.28;8381530;28;20235;-75
2022/07/09 10:26:50;;;;;;;7.63;2.17;;;;;;;23.45;43.49;98802.81;8380727;28;20621;-76
2022/07/09 10:30:53;;;;;;;7.57;1.80;;;;;;;23.51;43.57;98799.66;8381155;28;20427;-77
2022/07/09 10:35:03;;;;;;;11.57;2.23;;;;;;;23.62;43.79;98804.03;8381280;28;20530;-76
2022/07/09 10:39:13;;;;;;;15.43;2.80;;;;;;;23.69;43.40;98799.91;8380550;28;20235;-80
2022/07/09 10:43:16;;;;;;;9.00;2.00;;;;;;;23.59;43.32;98799.03;8379282;28;20231;-80
2022/07/09 10:47:20;;;;;;;14.70;2.43;;;;;;;23.38;44.00;98804.28;8379871;28;20246;-82
2022/07/09 10:51:24;;;;;;;6.97;2.20;;;;;;;23.25;44.18;98801.00;8380458;28;20219;-78
2022/07/09 10:55:28;;;;;;;5.70;2.07;;;;;;;23.26;43.91;98811.44;8380477;28;20234;-85
2022/07/09 10:59:31;;;;;;;6.27;1.67;;;;;;;23.26;43.62;98800.06;8380485;28;20231;-86
2022/07/09 11:03:36;;;;;;;7.27;1.60;;;;;;;23.38;43.77;98802.50;8380097;28;20242;-77
2022/07/09 11:07:41;;;;;;;4.77;1.60;;;;;;;23.38;43.97;98799.88;8379608;28;20235;-77
2022/07/09 11:11:45;;;;;;;6.73;1.73;;;;;;;23.36;44.37;98798.31;8380095;28;20534;-81
2022/07/09 11:15:48;;;;;;;3.37;1.63;;;;;;;23.17;44.15;98797.22;8380147;28;20234;-78
2022/07/09 11:19:51;;;;;;;5.33;2.13;;;;;;;23.08;44.82;98797.16;8380001;28;20231;-78
2022/07/09 11:23:56;;;;;;;4.13;1.67;;;;;;;22.95;44.96;98792.00;8379960;28;20299;-77
2022/07/09 11:28:01;;;;;;;6.33;1.90;;;;;;;23.09;45.06;98794.34;8379729;28;20551;-77
2022/07/09 11:32:05;;;;;;;4.20;1.60;;;;;;;23.07;44.82;98783.09;8378901;28;20227;-80
2022/07/09 11:36:08;;;;;;;6.57;2.00;;;;;;;23.10;45.06;98795.22;8378696;28;20251;-80
2022/07/09 11:40:17;;;;;;;3.63;1.80;;;;;;;23.42;44.59;98787.25;8391965;28;20231;-78
2022/07/09 11:44:22;;;;;;;6.17;2.20;;;;;;;23.56;44.26;98794.00;8396100;28;20253;-84
2022/07/09 11:48:26;;;;;;;5.73;2.07;;;;;;;23.67;43.90;98787.78;8385930;28;20218;-83
2022/07/09 11:52:29;;;;;;;3.50;1.70;;;;;;;23.88;43.31;98782.50;8386564;28;20244;-84
2022/07/09 11:56:44;;;;;;;4.03;1.80;;;;;;;23.52;42.70;98776.72;8385963;28;20396;-82
2022/07/09 12:00:47;;;;;;;4.77;1.60;;;;;;;24.08;43.05;98771.00;8386284;28;20227;-81
2022/07/09 12:04:50;;;;;;;4.63;1.90;;;;;;;25.07;40.79;98773.66;8385925;28;20256;-80
2022/07/09 12:09:00;;;;;;;3.17;1.30;;;;;;;25.97;40.60;98754.78;8384762;28;20511;-78
2022/07/09 12:13:05;;;;;;;4.97;1.50;;;;;;;26.37;39.21;98750.94;8385511;28;20235;-79
2022/07/09 12:17:19;;;;;;;3.63;1.37;;;;;;;26.02;39.15;98749.88;8387794;28;20244;-77
2022/07/09 12:21:22;;;;;;;5.07;1.90;;;;;;;25.68;39.44;98740.66;8417799;28;20429;-83
2022/07/09 12:25:25;;;;;;;3.40;1.33;;;;;;;25.95;39.25;98731.09;8418917;28;20227;-78
2022/07/09 12:29:30;;;;;;;7.33;1.63;;;;;;;25.72;39.06;98719.97;8418590;28;20240;-81
2022/07/09 12:33:33;;;;;;;11.10;1.70;;;;;;;25.65;38.84;98714.41;8418534;28;20233;-76
2022/07/09 12:37:36;;;;;;;2.53;1.43;;;;;;;25.54;38.75;98711.94;8418122;28;20251;-76
2022/07/09 12:41:39;;;;;;;2.57;1.57;;;;;;;25.50;38.69;98705.28;8417816;28;20264;-81
2022/07/09 12:45:43;;;;;;;2.63;1.60;;;;;;;26.54;36.56;98689.06;8417668;28;20235;-77
2022/07/09 12:49:47;;;;;;;3.87;1.83;;;;;;;26.95;36.06;98681.44;8416639;28;20241;-80
2022/07/09 12:53:50;;;;;;;3.70;1.63;;;;;;;26.17;36.22;98687.34;8417169;28;20234;-76
2022/07/09 12:57:52;;;;;;;4.00;1.83;;;;;;;25.76;37.53;98686.88;8417100;28;20244;-77
2022/07/09 13:01:57;;;;;;;3.60;1.80;;;;;;;25.98;36.52;98683.00;8417279;28;20227;-75
2022/07/09 13:06:00;;;;;;;8.63;2.10;;;;;;;26.56;37.59;98665.84;8416695;28;20560;-80
2022/07/09 13:10:03;;;;;;;5.83;1.60;;;;;;;27.02;36.21;98671.84;8416945;28;20234;-80
2022/07/09 13:14:07;;;;;;;5.33;1.87;;;;;;;26.64;35.61;98651.81;8416291;28;20232;-79
2022/07/09 13:18:11;;;;;;;4.83;1.93;;;;;;;26.59;36.34;98638.13;8415174;28;20220;-81
2022/07/09 13:22:15;;;;;;;5.47;2.00;;;;;;;26.13;36.03;98644.34;8415109;28;20411;-77
2022/07/09 13:26:18;;;;;;;5.63;2.03;;;;;;;25.99;36.33;98644.88;8415352;28;20454;-78
2022/07/09 13:30:21;;;;;;;6.03;1.80;;;;;;;26.05;36.35;98640.78;8416583;28;20544;-83
2022/07/09 13:34:26;;;;;;;3.67;1.70;;;;;;;25.98;36.12;98632.59;8415762;28;20504;-77
2022/07/09 13:38:29;;;;;;;3.07;1.63;;;;;;;26.09;36.37;98637.69;8415876;28;20245;-79
2022/07/09 13:42:32;;;;;;;4.03;1.60;;;;;;;26.10;36.24;98623.44;8416299;28;20526;-77
2022/07/09 13:46:35;;;;;;;3.53;1.97;;;;;;;25.99;36.02;98620.16;8415589;28;20231;-78
2022/07/09 13:50:40;;;;;;;4.63;1.90;;;;;;;26.17;37.25;98628.97;8415368;28;20238;-76
2022/07/09 13:54:43;;;;;;;3.47;1.93;;;;;;;26.09;37.98;98623.59;8415760;28;20225;-75
2022/07/09 13:58:45;;;;;;;6.10;2.30;;;;;;;25.83;37.11;98618.97;8415540;28;20251;-75
2022/07/09 14:02:48;;;;;;;4.97;2.13;;;;;;;25.49;37.01;98613.44;8415048;28;20233;-76
2022/07/09 14:06:53;;;;;;;7.60;1.93;;;;;;;25.61;37.49;98608.75;8415126;28;20295;-79
2022/07/09 14:10:58;;;;;;;5.37;2.20;;;;;;;25.64;38.40;98600.53;8415127;28;20224;-80
2022/07/09 14:15:01;;;;;;;3.13;1.90;;;;;;;25.33;37.05;98595.53;8414785;28;20233;-79
2022/07/09 14:19:04;;;;;;;3.30;2.17;;;;;;;25.33;37.46;98593.69;8414903;28;20243;-77
2022/07/09 14:23:09;;;;;;;3.00;2.03;;;;;;;25.08;37.37;98595.16;8414690;28;20232;-81
2022/07/09 14:27:12;;;;;;;5.37;1.80;;;;;;;25.06;37.80;98589.19;8414728;28;20236;-79
2022/07/09 14:31:19;;;;;;;2.30;1.83;;;;;;;24.88;37.29;98585.59;8414873;28;20236;-78
2022/07/09 14:35:22;;;;;;;6.10;2.37;;;;;;;24.76;37.40;98584.94;8413603;28;20226;-78
2022/07/09 14:39:27;;;;;;;4.50;2.10;;;;;;;24.64;38.00;98581.63;8413828;28;20232;-80
2022/07/09 14:43:30;;;;;;;5.57;2.13;;;;;;;24.74;37.88;98576.31;8414117;28;20232;-89
2022/07/09 14:47:33;;;;;;;3.10;1.90;;;;;;;24.78;37.94;98575.88;8414295;28;20237;-78
2022/07/09 14:51:38;;;;;;;4.70;2.23;;;;;;;24.93;38.02;98570.94;8414135;28;20231;-79
2022/07/09 14:55:44;;;;;;;4.53;2.03;;;;;;;25.06;38.34;98564.50;8413794;28;20237;-81
2022/07/09 14:59:47;;;;;;;2.70;1.97;;;;;;;25.04;39.08;98569.94;8413805;28;20237;-78
2022/07/09 15:03:50;;;;;;;5.23;2.30;;;;;;;24.82;39.07;98568.47;8413528;28;20228;-80
2022/07/09 15:07:53;;;;;;;3.40;2.00;;;;;;;24.66;39.41;98568.25;8413185;28;20231;-76
2022/07/09 15:11:57;;;;;;;6.83;2.00;;;;;;;24.70;39.34;98567.00;8413502;28;20449;-76
2022/07/09 15:16:00;;;;;;;3.57;2.10;;;;;;;24.74;38.78;98569.19;8412502;28;20229;-78
2022/07/09 15:20:03;;;;;;;4.03;2.00;;;;;;;24.92;38.71;98563.13;8412957;28;20510;-76
2022/07/09 15:24:06;;;;;;;9.47;2.40;;;;;;;25.28;38.25;98558.84;8413164;28;20241;-84
2022/07/09 15:28:12;;;;;;;5.13;2.60;;;;;;;25.13;38.37;98558.47;8413443;28;20227;-81
2022/07/09 15:32:15;;;;;;;4.53;2.30;;;;;;;25.03;38.38;98557.66;8413334;28;20558;-76
2022/07/09 15:36:18;;;;;;;5.23;2.33;;;;;;;25.06;37.10;98549.44;8413017;28;20231;-76
2022/07/09 15:40:21;;;;;;;4.07;1.90;;;;;;;25.53;37.54;98538.75;8412536;28;20515;-76
2022/07/09 15:44:25;;;;;;;4.70;2.00;;;;;;;25.85;37.15;98532.09;8411716;28;20239;-77
2022/07/09 15:48:28;;;;;;;4.60;1.80;;;;;;;25.92;38.39;98525.25;8412857;28;20238;-77
2022/07/09 15:52:33;;;;;;;3.00;2.10;;;;;;;25.59;36.99;98520.56;8412384;28;20240;-77
2022/07/09 15:56:35;;;;;;;3.73;2.10;;;;;;;25.01;38.33;98519.88;8412766;28;20237;-78
2022/07/09 16:00:40;;;;;;;3.20;2.03;;;;;;;25.15;38.49;98521.22;8412908;28;20251;-84
2022/07/09 16:04:43;;;;;;;3.07;1.77;;;;;;;25.40;38.89;98527.69;8412630;28;20292;-77
2022/07/09 16:08:46;;;;;;;3.43;2.10;;;;;;;25.62;38.64;98504.38;8412409;28;20547;-76
2022/07/09 16:12:52;;;;;;;2.87;2.13;;;;;;;25.30;38.09;98513.63;8412250;28;20222;-83
2022/07/09 16:16:56;;;;;;;4.37;2.30;;;;;;;25.30;38.88;98508.31;8412182;28;20335;-76
2022/07/09 16:20:59;;;;;;;5.20;1.87;;;;;;;25.13;38.55;98499.31;8412329;28;20441;-77
2022/07/09 16:25:02;;;;;;;2.80;2.03;;;;;;;25.03;39.20;98501.19;8413607;28;20430;-76
2022/07/09 16:29:05;;;;;;;4.93;2.27;;;;;;;24.85;40.40;98511.75;8418207;28;20231;-75
2022/07/09 16:33:10;;;;;;;5.53;2.03;;;;;;;24.62;39.74;98503.28;8418324;28;20511;-73
2022/07/09 16:37:12;;;;;;;4.27;2.13;;;;;;;24.69;41.08;98512.34;8418025;28;20226;-75
2022/07/09 16:41:15;;;;;;;2.40;1.90;;;;;;;24.39;40.23;98507.09;8417849;28;20257;-74
2022/07/09 16:45:18;;;;;;;6.10;1.97;;;;;;;24.36;41.05;98514.50;8416923;28;20250;-74
2022/07/09 16:49:23;;;;;;;5.73;2.37;;;;;;;24.27;40.85;98510.88;8417435;28;20289;-76
2022/07/09 16:53:47;;;;;;;6.13;1.80;;;;;;;24.16;41.41;98503.09;8416798;28;20232;-74
2022/07/09 16:57:50;;;;;;;13.87;2.33;;;;;;;24.11;40.83;98505.34;8417210;28;20233;-72
2022/07/09 17:01:53;;;;;;;2.63;1.60;;;;;;;24.06;41.01;98500.44;8417610;28;20223;-73
2022/07/09 17:05:58;;;;;;;5.50;1.90;;;;;;;23.98;41.34;98498.50;8417287;28;20542;-74
2022/07/09 17:10:00;;;;;;;4.13;2.10;;;;;;;23.92;41.48;98493.78;8416946;28;20240;-77
2022/07/09 17:14:03;;;;;;;3.73;2.17;;;;;;;23.93;41.67;98494.63;8417250;28;20239;-77
2022/07/09 17:18:08;;;;;;;3.50;2.37;;;;;;;23.87;41.66;98496.00;8416894;28;20237;-74
2022/07/09 17:22:12;;;;;;;5.27;2.20;;;;;;;23.81;41.71;98501.88;8416731;28;20231;-77
2022/07/09 17:26:15;;;;;;;3.97;2.00;;;;;;;23.77;41.90;98498.63;8416666;28;20417;-73
2022/07/09 17:30:18;;;;;;;7.33;2.30;;;;;;;23.65;41.88;98489.16;8417006;28;20449;-71
2022/07/09 17:34:21;;;;;;;3.60;2.13;;;;;;;23.73;41.82;98486.66;8416971;28;20227;-75
2022/07/09 17:38:28;;;;;;;23.70;3.17;;;;;;;23.80;41.64;98493.09;8415177;28;20234;-78
2022/07/09 17:42:31;;;;;;;24.67;3.63;;;;;;;23.89;42.71;98485.28;8416327;28;20241;-83
2022/07/09 17:46:34;;;;;;;3.87;2.30;;;;;;;23.90;42.26;98484.34;8411922;28;20553;-78
2022/07/09 17:50:37;;;;;;;39.90;4.43;;;;;;;23.87;43.52;98489.88;8415625;28;20243;-78
2022/07/09 17:54:46;;;;;;;15.90;3.17;;;;;;;23.85;43.92;98479.44;8415433;28;20222;-78
2022/07/09 17:58:49;;;;;;;16.70;3.40;;;;;;;23.90;44.99;98479.03;8415491;28;20227;-80
2022/07/09 18:02:52;;;;;;;12.00;3.43;;;;;;;23.87;45.09;98480.13;8415386;28;20230;-80
2022/07/09 18:06:55;;;;;;;6.73;2.40;;;;;;;23.87;44.40;98474.03;8415269;28;20539;-77
2022/07/09 18:10:59;;;;;;;8.03;2.50;;;;;;;23.86;44.94;98475.00;8415073;28;20413;-78
2022/07/09 18:15:03;;;;;;;9.10;3.10;;;;;;;23.86;45.25;98462.63;8414907;28;20242;-76
2022/07/09 18:19:05;;;;;;;8.63;2.53;;;;;;;23.82;45.41;98463.88;8414767;28;20233;-75
2022/07/09 18:23:09;;;;;;;4.70;2.43;;;;;;;23.80;44.94;98465.84;8414675;28;20227;-76
2022/07/09 18:27:14;;;;;;;6.47;2.60;;;;;;;23.77;45.38;98464.25;8414570;28;20231;-75
2022/07/09 18:31:17;;;;;;;6.17;2.40;;;;;;;23.77;45.71;98468.72;8414668;28;20223;-76
2022/07/09 18:35:19;;;;;;;5.97;2.73;;;;;;;23.71;45.65;98462.16;8414431;28;20337;-76
2022/07/09 18:39:22;;;;;;;6.17;2.70;;;;;;;23.71;45.52;98458.69;8413795;28;20219;-74
2022/07/09 18:43:26;;;;;;;3.20;2.47;;;;;;;23.54;44.29;98454.94;8413799;28;20239;-75
2022/07/09 18:47:29;;;;;;;6.53;2.43;;;;;;;23.39;44.28;98463.25;8413811;28;20236;-75
2022/07/09 18:51:32;;;;;;;3.90;2.40;;;;;;;23.13;45.56;98470.00;8413856;28;20235;-76
2022/07/09 18:55:35;;;;;;;2.30;2.10;;;;;;;23.16;44.73;98478.50;8413856;28;20533;-76
2022/07/09 18:59:39;;;;;;;3.37;2.17;;;;;;;23.13;44.97;98480.59;8413802;28;20230;-77
2022/07/09 19:03:42;;;;;;;3.07;2.20;;;;;;;23.21;45.20;98500.09;8413596;28;20414;-76
2022/07/09 19:07:45;;;;;;;5.23;2.20;;;;;;;23.05;46.39;98501.56;8413249;28;20290;-76
2022/07/09 19:11:48;;;;;;;5.30;2.20;;;;;;;22.97;46.99;98518.03;8413389;28;20238;-77